Liberal, Missouri
Current Conditions -  °F | °C
As of 3:15 PM on Saturday 20 Dec 2014 (Local Time) from KPTS Reporting Station
Overcast Overcast  
Wind Chill: 37°   Ceiling: 1800
Heat Index: 43°   Visibility: 10mi
Dew Point: 37°   Wind: 10mph
Humidity: 80%   Direction: 220°SW
Pressure: 30.16"   Gusts: NA
Location:  37.56°N, 94.52°W
Report Text: KPTS 202115Z AUTO 22009KT 10SM OVC018 06/03 A3016 RMK AO2 T00600028
Loading
Personal Weather Stations






























Interactive Weather Map New forecast layout! Learn more

10-Day Weather Forecast

Advertisements
Track Severe Weather on mobile